createdAt,value
2023-05-15T00:03:38.182Z,2.33
2023-05-15T00:08:40.186Z,2.60
2023-05-15T00:13:41.624Z,1.90
2023-05-15T00:18:43.027Z,1.75
2023-05-15T00:23:44.433Z,2.00
2023-05-15T00:28:45.839Z,1.77
2023-05-15T00:33:47.524Z,1.92
2023-05-15T00:38:48.934Z,1.83
2023-05-15T00:43:52.168Z,2.08
2023-05-15T00:48:54.804Z,2.47
2023-05-15T00:53:56.796Z,2.10
2023-05-15T00:58:59.890Z,2.70
2023-05-15T01:04:02.418Z,2.67
2023-05-15T01:09:05.325Z,2.78
2023-05-15T01:14:08.653Z,2.45
2023-05-15T01:19:10.204Z,3.10
2023-05-15T01:24:28.021Z,2.88
2023-05-15T01:29:44.353Z,3.42
2023-05-15T01:34:54.938Z,3.30
2023-05-15T01:40:02.373Z,4.28
2023-05-15T01:45:06.045Z,3.83
2023-05-15T01:50:10.059Z,3.35
2023-05-15T01:55:14.606Z,3.53
2023-05-15T02:00:17.225Z,3.67
2023-05-15T02:05:19.104Z,3.00
2023-05-15T02:10:22.052Z,2.85
2023-05-15T02:15:24.871Z,2.50
2023-05-15T02:20:26.381Z,2.60
2023-05-15T02:25:46.692Z,2.47
2023-05-15T02:30:58.029Z,2.33
2023-05-15T02:36:04.400Z,2.80
2023-05-15T02:41:07.561Z,3.00
2023-05-15T02:46:09.316Z,3.25
2023-05-15T02:51:10.850Z,3.20
2023-05-15T02:56:12.319Z,3.15
2023-05-15T03:01:13.790Z,3.00
2023-05-15T03:06:15.259Z,4.07
2023-05-15T03:11:19.137Z,3.53
2023-05-15T03:16:20.732Z,3.53
2023-05-15T03:21:22.194Z,4.82
2023-05-15T03:26:23.612Z,3.05
2023-05-15T03:31:25.229Z,3.00
2023-05-15T03:36:26.730Z,3.08
2023-05-15T03:41:28.235Z,3.80
2023-05-15T03:46:29.654Z,3.40
2023-05-15T03:51:31.358Z,4.35
2023-05-15T03:56:33.050Z,4.82
2023-05-15T04:01:39.334Z,4.68
2023-05-15T04:06:49.787Z,4.65
2023-05-15T04:11:51.200Z,4.38
2023-05-15T04:16:52.694Z,3.50
2023-05-15T04:21:54.036Z,4.03
2023-05-15T04:26:55.393Z,4.13
2023-05-15T04:31:56.900Z,4.30
2023-05-15T04:36:58.478Z,5.03
2023-05-15T04:41:59.847Z,3.60
2023-05-15T04:47:01.241Z,4.18
2023-05-15T04:52:02.707Z,4.63
2023-05-15T04:57:04.191Z,4.95
2023-05-15T05:02:05.761Z,4.45
2023-05-15T05:07:08.019Z,4.40
2023-05-15T05:12:09.649Z,5.07
2023-05-15T05:17:11.231Z,4.80
2023-05-15T05:22:12.622Z,4.60
2023-05-15T05:27:14.074Z,5.45
2023-05-15T05:32:15.557Z,5.85
2023-05-15T05:37:16.884Z,5.90
2023-05-15T05:42:18.249Z,4.78
2023-05-15T05:47:19.614Z,4.22
2023-05-15T05:52:20.984Z,4.78
2023-05-15T05:57:22.458Z,4.38
2023-05-15T06:02:24.437Z,4.40
2023-05-15T06:07:25.993Z,4.63
2023-05-15T06:12:27.966Z,4.38
2023-05-15T06:17:29.399Z,3.70
2023-05-15T06:22:32.957Z,4.00
2023-05-15T06:27:34.424Z,4.15
2023-05-15T06:32:35.868Z,4.05
2023-05-15T06:37:37.599Z,3.97
2023-05-15T06:42:38.989Z,4.88
2023-05-15T06:47:40.341Z,3.90
2023-05-15T06:52:41.713Z,3.05
2023-05-15T06:57:44.115Z,3.13
2023-05-15T07:02:45.689Z,3.00
2023-05-15T07:07:47.331Z,2.75
2023-05-15T07:12:48.669Z,2.30
2023-05-15T07:17:50.175Z,3.08
2023-05-15T07:22:56.291Z,2.88
2023-05-15T07:27:58.297Z,3.15
2023-05-15T07:32:59.735Z,3.25
2023-05-15T07:38:01.367Z,2.70
2023-05-15T07:43:02.750Z,2.72
2023-05-15T07:48:17.975Z,2.13
2023-05-15T07:53:19.816Z,2.33
2023-05-15T07:58:21.495Z,2.10
2023-05-15T08:03:23.186Z,2.20
2023-05-15T08:08:24.779Z,2.28
2023-05-15T08:13:26.208Z,2.25
2023-05-15T08:18:27.629Z,1.73
2023-05-15T08:23:29.102Z,1.65
2023-05-15T08:28:30.518Z,1.98
2023-05-15T08:33:31.929Z,1.40
2023-05-15T08:38:33.521Z,1.60
2023-05-15T08:43:39.039Z,1.20
2023-05-15T08:48:42.192Z,1.48
2023-05-15T08:53:43.965Z,2.13
2023-05-15T08:58:45.525Z,2.78
2023-05-15T09:03:47.102Z,1.85
2023-05-15T09:08:49.946Z,2.10
2023-05-15T09:13:51.362Z,2.40
2023-05-15T09:18:54.217Z,2.97
2023-05-15T09:24:15.760Z,2.60
2023-05-15T09:29:18.923Z,2.00
2023-05-15T09:34:29.873Z,1.30
2023-05-15T09:39:31.222Z,1.80
2023-05-15T09:44:33.946Z,1.60
2023-05-15T09:49:35.596Z,1.90
2023-05-15T09:54:37.949Z,1.77
2023-05-15T09:59:47.901Z,2.25
2023-05-15T10:04:56.938Z,2.03
2023-05-15T10:09:59.145Z,2.40
2023-05-15T10:15:01.727Z,3.25
2023-05-15T10:20:06.910Z,3.30
2023-05-15T10:25:42.170Z,3.15
2023-05-15T10:30:44.000Z,2.50
2023-05-15T10:35:46.890Z,2.78
2023-05-15T10:40:49.407Z,3.92
2023-05-15T10:45:52.459Z,3.67
2023-05-15T10:50:53.983Z,4.68
2023-05-15T10:55:55.534Z,5.95
2023-05-15T11:00:57.302Z,6.15
2023-05-15T11:06:10.165Z,5.68
2023-05-15T11:11:54.701Z,5.57
2023-05-15T11:16:57.964Z,4.38
2023-05-15T11:22:09.088Z,5.25
2023-05-15T11:27:13.192Z,8.40
2023-05-15T11:32:40.584Z,6.53
2023-05-15T11:37:43.867Z,6.00
2023-05-15T11:43:04.623Z,6.43
2023-05-15T11:48:07.967Z,4.85
2023-05-15T11:53:10.232Z,7.40
2023-05-15T11:58:23.052Z,7.18
2023-05-15T12:03:36.097Z,7.05
2023-05-15T12:08:38.474Z,8.38
2023-05-15T12:13:39.820Z,8.93
2023-05-15T12:18:41.195Z,8.32
2023-05-15T12:23:59.896Z,7.95
2023-05-15T12:29:08.318Z,7.63
2023-05-15T12:34:10.681Z,6.40
2023-05-15T12:39:12.742Z,2.60
2023-05-15T12:44:17.601Z,2.65
2023-05-15T12:49:22.705Z,1.05
2023-05-15T12:54:24.302Z,1.00
2023-05-15T12:59:25.760Z,0.88
2023-05-15T13:04:27.723Z,1.15
2023-05-15T13:09:29.506Z,1.15
2023-05-15T13:14:34.661Z,2.13
2023-05-15T13:19:36.057Z,2.22
2023-05-15T13:24:37.540Z,2.13
2023-05-15T13:29:38.914Z,1.83
2023-05-15T13:34:40.515Z,1.88
2023-05-15T13:39:41.847Z,2.03
2023-05-15T13:44:43.409Z,2.00
2023-05-15T13:49:45.538Z,2.30
2023-05-15T13:54:46.883Z,2.00
2023-05-15T13:59:48.506Z,2.47
2023-05-15T14:04:49.874Z,2.67
2023-05-15T14:09:51.643Z,2.35
2023-05-15T14:14:53.125Z,2.80
2023-05-15T14:19:54.730Z,3.10
2023-05-15T14:24:56.096Z,3.05
2023-05-15T14:29:57.515Z,2.75
2023-05-15T14:34:59.836Z,3.38
2023-05-15T14:40:01.548Z,3.45
2023-05-15T14:45:03.190Z,2.50
2023-05-15T14:50:05.113Z,3.70
2023-05-15T14:55:09.577Z,4.90
2023-05-15T15:00:13.264Z,4.57
2023-05-15T15:05:14.634Z,5.47
2023-05-15T15:10:15.981Z,5.80
2023-05-15T15:15:17.865Z,6.38
2023-05-15T15:20:20.478Z,6.18
2023-05-15T15:25:22.128Z,7.70
2023-05-15T15:30:23.629Z,8.05
2023-05-15T15:35:25.297Z,7.82
2023-05-15T15:40:26.941Z,8.40
2023-05-15T15:45:28.514Z,7.43
2023-05-15T15:50:29.979Z,7.65
2023-05-15T15:55:31.360Z,6.97
2023-05-15T16:00:32.744Z,7.68
2023-05-15T16:05:34.116Z,6.85
2023-05-15T16:10:35.564Z,7.25
2023-05-15T16:15:37.024Z,5.60
2023-05-15T16:20:38.910Z,5.78
2023-05-15T16:25:40.475Z,5.25
2023-05-15T16:30:48.814Z,5.70
2023-05-15T16:35:52.336Z,4.82
2023-05-15T16:40:53.997Z,4.60
2023-05-15T16:45:55.645Z,4.65
2023-05-15T16:50:57.013Z,4.15
2023-05-15T16:55:58.515Z,3.47
2023-05-15T17:00:59.886Z,3.97
2023-05-15T17:06:01.359Z,4.53
2023-05-15T17:11:02.762Z,4.03
2023-05-15T17:16:04.306Z,4.88
2023-05-15T17:21:06.191Z,4.28
2023-05-15T17:26:07.538Z,4.68
2023-05-15T17:31:10.350Z,3.92
2023-05-15T17:36:11.774Z,4.60
2023-05-15T17:41:13.119Z,4.35
2023-05-15T17:46:14.567Z,4.13
2023-05-15T17:51:16.138Z,3.78
2023-05-15T17:56:17.847Z,4.53
2023-05-15T18:01:19.934Z,4.00
2023-05-15T18:06:21.661Z,3.72
2023-05-15T18:11:23.303Z,3.92
2023-05-15T18:16:24.903Z,3.95
2023-05-15T18:21:26.477Z,4.00
2023-05-15T18:26:31.212Z,3.20
2023-05-15T18:31:32.854Z,3.47
2023-05-15T18:36:34.504Z,4.55
2023-05-15T18:41:35.869Z,3.50
2023-05-15T18:46:37.984Z,3.20
2023-05-15T18:51:39.409Z,3.80
2023-05-15T18:56:43.147Z,3.80
2023-05-15T19:01:46.335Z,4.63
2023-05-15T19:06:51.029Z,4.50
2023-05-15T19:11:52.501Z,5.05
2023-05-15T19:16:54.220Z,4.68
2023-05-15T19:21:55.667Z,4.75
2023-05-15T19:26:57.035Z,5.25
2023-05-15T19:31:58.482Z,4.80
2023-05-15T19:36:59.908Z,5.07
2023-05-15T19:42:01.386Z,5.35
2023-05-15T19:47:03.468Z,5.53
2023-05-15T19:52:05.714Z,5.70
2023-05-15T19:57:07.150Z,5.72
2023-05-15T20:02:10.454Z,7.00
2023-05-15T20:07:12.833Z,5.35
2023-05-15T20:12:14.297Z,6.47
2023-05-15T20:17:16.149Z,5.78
2023-05-15T20:22:17.542Z,8.15
2023-05-15T20:27:19.174Z,7.45
2023-05-15T20:32:21.648Z,7.63
2023-05-15T20:37:27.583Z,7.13
2023-05-15T20:47:44.929Z,7.65
2023-05-15T20:52:46.556Z,8.30
2023-05-15T20:57:50.157Z,7.95
2023-05-15T21:02:53.565Z,8.70
2023-05-15T21:07:57.522Z,9.90
2023-05-15T21:13:00.590Z,9.75
2023-05-15T21:18:02.696Z,10.18
2023-05-15T21:23:04.298Z,9.20
2023-05-15T21:28:06.590Z,13.18
2023-05-15T21:33:09.487Z,13.32
2023-05-15T21:38:13.556Z,14.20
2023-05-15T21:43:15.005Z,15.75
2023-05-15T21:48:18.957Z,17.20
2023-05-15T21:53:20.564Z,15.35
2023-05-15T21:58:22.034Z,16.95
2023-05-15T22:03:24.116Z,18.08
2023-05-15T22:08:25.670Z,16.85
2023-05-15T22:13:27.548Z,16.83
2023-05-15T22:18:29.020Z,16.13
2023-05-15T22:23:31.433Z,15.90
2023-05-15T22:28:33.863Z,15.63
2023-05-15T22:33:35.593Z,16.80
2023-05-15T22:38:38.501Z,17.25
2023-05-15T22:43:40.082Z,16.90
2023-05-15T22:48:41.868Z,18.77
2023-05-15T22:53:44.701Z,17.33
2023-05-15T22:58:47.880Z,17.88
2023-05-15T23:03:49.492Z,16.92
2023-05-15T23:08:51.246Z,18.40
2023-05-15T23:13:52.769Z,17.90
2023-05-15T23:18:56.606Z,19.08
2023-05-15T23:23:58.263Z,19.30
2023-05-15T23:28:59.871Z,19.48
2023-05-15T23:34:01.371Z,19.88
2023-05-15T23:39:03.256Z,20.50
2023-05-15T23:44:04.873Z,19.80
2023-05-15T23:49:06.291Z,20.20
2023-05-15T23:54:07.949Z,19.20
2023-05-15T23:59:10.460Z,20.13
